Flight Track Log - Related Links

Times and Time Zones

All times are in EDT time to prevent confusion due to time zone crossing. See the AJT744 flight status page for this flight to view local times or setup timezone preferences in your user account.

Time Position Orientation Groundspeed Altitude Reporting Facility
EDT Latitude Longitude Course Direction KTS MPH feet Rate Location/Type
Fri 09:42:50 AM 23.2858 -83.6408 59° Northeast 482 555 39,000  Level Miami Center
Fri 09:43:50 AM 23.3686 -83.5167 54° Northeast 499 574 39,000  Level Miami Center
Fri 09:44:50 AM 23.4469 -83.3939 55° Northeast 499 574 39,000  Level Miami Center
Fri 09:45:50 AM 23.5253 -83.2736 55° Northeast 494 568 39,000 -50 Level Miami Center
Fri 09:46:50 AM 23.6056 -83.1508 54° Northeast 489 563 38,900  Descending Miami Center
Fri 09:47:00 AM 24.1865 -83.5941 59° Northeast  Level Estimated
Fri 09:47:50 AM 23.6817 -83.0256 56° Northeast 495 570 39,000  Level Miami Center
Fri 09:48:50 AM 23.7661 -82.9003 54° Northeast 500 575 39,000  Level Miami Center
Fri 09:49:50 AM 23.8422 -82.7700 57° Northeast 500 575 39,000  Level Miami Center
Fri 09:50:50 AM 23.9244 -82.6444 54° Northeast 500 575 39,000  Level Miami Center
Fri 09:51:50 AM 24.0025 -82.5164 56° Northeast 500 575 39,000  Level Miami Center
Fri 09:52:50 AM 24.1114 -82.3961 45° Northeast 500 575 39,000  Level Miami Center
Fri 09:53:50 AM 24.2131 -82.2936 43° Northeast 495 570 39,000 -100 Level Miami Center
Fri 09:54:50 AM 24.3089 -82.1883 45° Northeast 489 563 38,800 -1,650 Descending Miami Center
Fri 09:55:50 AM 24.4169 -82.0836 41° Northeast 489 563 35,700 -2,750 Descending Miami Center
Fri 09:56:50 AM 24.5189 -81.9761 44° Northeast 494 568 33,300 -2,450 Descending Miami Center
Fri 09:57:50 AM 24.6228 -81.8683 43° Northeast 499 574 30,800 -2,350 Descending Miami Center
Fri 09:58:50 AM 24.7239 -81.7789 39° Northeast 509 586 28,600 -2,300 Descending Miami Center
Fri 09:59:50 AM 24.8233 -81.6753 43° Northeast 499 574 26,200 -2,400 Descending Miami Center
Fri 10:00:50 AM 24.9208 -81.5692 45° Northeast 469 540 23,800 -2,250 Descending Miami Center
Fri 10:01:50 AM 25.0092 -81.4786 43° Northeast 450 518 21,700 -2,100 Descending Miami Center
Fri 10:02:50 AM 25.0975 -81.3878 43° Northeast 433 498 19,600 -2,000 Descending Miami Center
Fri 10:03:50 AM 25.1772 -81.3106 41° Northeast 423 487 17,700 -2,050 Descending Miami Center
Fri 10:04:50 AM 25.2614 -81.2217 44° Northeast 404 465 15,500 -2,150 Descending Miami Center
Fri 10:05:50 AM 25.3411 -81.1397 43° Northeast 389 448 13,400 -2,100 Descending Miami Center
Fri 10:06:50 AM 25.4186 -81.0572 44° Northeast 389 448 11,300 -1,554 Descending Miami Center
Fri 10:07:42 AM 25.4789 -80.9950 43° Northeast 327 376 10,500 -900 Descending Miami Center
Fri 10:07:50 AM 25.4875 -80.9836 50° Northeast 363 418 10,400 -529 Descending Miami Center
Fri 10:08:50 AM 25.5456 -80.9211 44° Northeast 322 371 9,900 -364 Descending Miami Center
Fri 10:08:56 AM 25.5458 -80.9189 82° East 276 318 10,000 -500 Climbing Miami Center
Fri 10:09:50 AM 25.5872 -80.8489 57° Northeast 293 337 9,400 -787 Descending Miami Center
Fri 10:09:57 AM 25.5917 -80.8397 62° Northeast 279 321 9,200 -1,500 Descending Miami Center
Fri 10:10:50 AM 25.6269 -80.7742 59° Northeast 279 321 7,900 -1,377 Descending Miami Center
Fri 10:10:58 AM 25.6294 -80.7628 76° East 281 323 7,800 -1,000 Descending Miami Center
Fri 10:11:50 AM 25.6600 -80.7083 58° Northeast 268 308 6,900 -1,161 Descending Miami Center
Fri 10:12:00 AM 25.6667 -80.6925 65° Northeast 262 302 6,600 -1,775 Descending Miami Center
Fri 10:13:01 AM 25.7019 -80.6244 60° Northeast 246 283 4,800 -1,527 Descending Miami Center
Fri 10:13:50 AM 25.7281 -80.5769 59° Northeast 246 283 3,800 -1,377 Descending Miami Center
Fri 10:14:02 AM 25.7328 -80.5608 72° East 234 269 3,400 -900 Descending Miami Center
Fri 10:14:50 AM 25.7611 -80.5156 55° Northeast 240 276 2,900 -393 Descending Miami Center
Fri 10:15:03 AM 25.7678 -80.4997 65° Northeast 228 262 3,000 -560 Climbing Miami Center
Fri 10:16:05 AM 25.7775 -80.4422 79° East 188 216 2,200 -841 Descending Miami Center
Fri 10:16:50 AM 25.7847 -80.4033 78° East 197 227 1,500 -896 Descending Miami Center
Fri 10:17:12 AM 25.7808 -80.3869 105° East 137 158 1,200 -701 Descending Miami Center
Fri 10:18:07 AM 25.7817 -80.3500 89° East 129 148 600 -655 Descending Miami Center
Fri 10:20:00 AM 25.7833 -80.2833 90° East  Level FlightAware Approximate
Fri 10:27:00 AM 25.7954 -80.2901 90° East  Level Estimated

Login

Don't have an account? Register now (free) for customized features, flight alerts, and more!